^^
Your Local Weather - Clay, NY Station Historical Data
Daily Summary for November 12, 2017 Units:  English    Metric   Both
« Previous Day
Next Day »
Daily Weekly Monthly Yearly Custom
  High: Low: Average:
Temperature: 42.5 °F 21.2 °F 32.8 °F
Dew Point: 25.8 °F 12.1 °F 19 °F
Humidity: 80% 34% 58%
Wind Speed: 3.0mph 0.0mph 0.5mph
Wind Gust: 7.0mph - -
Wind- - ESE
Pressure: 30.41 in 30.34 in -
Precipitation: 0.00 in    
Historical Graphs
 
 
Tabular Data for November 12, 2017
Time Temperature Dew Point Pressure Wind Wind Speed Wind Gust Humidity Rainfall Rate (Hourly) solar
00:02 27.5 °F 13.0 °F 30.41 in East 1.0 mph 1.0 mph 54% 0.00 in 0 W/m2
00:08 27.5 °F 12.2 °F 30.41 in Calm   1.0 mph 52% 0.00 in 0 W/m2
00:12 27.4 °F 12.5 °F 30.41 in East 1.0 mph 1.0 mph 53% 0.00 in 0 W/m2
00:18 27.2 °F 13.6 °F 30.40 in Calm   1.0 mph 56% 0.00 in 0 W/m2
00:24 26.9 °F 12.5 °F 30.40 in Calm   1.0 mph 54% 0.00 in 0 W/m2
00:30 26.8 °F 12.4 °F 30.39 in East 1.0 mph 1.0 mph 54% 0.00 in 0 W/m2
00:36 26.6 °F 13.0 °F 30.39 in East 1.0 mph 2.0 mph 56% 0.00 in 0 W/m2
00:42 26.4 °F 13.2 °F 30.39 in ENE 1.0 mph 7.0 mph 57% 0.00 in 0 W/m2
00:48 26.5 °F 12.5 °F 30.39 in East 1.0 mph 7.0 mph 55% 0.00 in 0 W/m2
00:54 26.5 °F 12.1 °F 30.39 in SE 1.0 mph 7.0 mph 54% 0.00 in 0 W/m2
01:00 26.4 °F 12.4 °F 30.39 in ESE 2.0 mph 2.0 mph 55% 0.00 in 0 W/m2
01:06 26.3 °F 12.3 °F 30.38 in East 1.0 mph 3.0 mph 55% 0.00 in 0 W/m2
01:12 26.3 °F 12.3 °F 30.38 in East 1.0 mph 1.0 mph 55% 0.00 in 0 W/m2
01:18 26.1 °F 12.5 °F 30.38 in East 1.0 mph 2.0 mph 56% 0.00 in 0 W/m2
01:24 25.9 °F 12.3 °F 30.39 in East 1.0 mph 2.0 mph 56% 0.00 in 0 W/m2
01:30 25.7 °F 12.6 °F 30.39 in Calm     57% 0.00 in 0 W/m2
01:36 25.3 °F 12.6 °F 30.39 in Calm   1.0 mph 58% 0.00 in 0 W/m2
01:42 25.2 °F 13.2 °F 30.39 in East 1.0 mph 2.0 mph 60% 0.00 in 0 W/m2
01:48 25.2 °F 13.2 °F 30.39 in East 1.0 mph 2.0 mph 60% 0.00 in 0 W/m2
01:54 24.9 °F 13.3 °F 30.39 in East 1.0 mph 1.0 mph 61% 0.00 in 0 W/m2
02:00 24.6 °F 13.8 °F 30.39 in East 1.0 mph 1.0 mph 63% 0.00 in 0 W/m2
02:06 24.4 °F 13.2 °F 30.39 in Calm   1.0 mph 62% 0.00 in 0 W/m2
02:12 24.1 °F 14.0 °F 30.39 in Calm   2.0 mph 65% 0.00 in 0 W/m2
02:18 23.9 °F 14.5 °F 30.39 in Calm   2.0 mph 67% 0.00 in 0 W/m2
02:24 24.0 °F 13.9 °F 30.39 in Calm   2.0 mph 65% 0.00 in 0 W/m2
02:30 24.2 °F 13.8 °F 30.39 in ENE 1.0 mph 1.0 mph 64% 0.00 in 0 W/m2
02:36 24.0 °F 14.3 °F 30.39 in Calm   1.0 mph 66% 0.00 in 0 W/m2
02:42 23.6 °F 14.6 °F 30.39 in Calm     68% 0.00 in 0 W/m2
02:56 23.5 °F 14.5 °F 30.39 in Calm     68% 0.00 in 0 W/m2
03:02 23.3 °F 14.0 °F 30.39 in Calm     67% 0.00 in 0 W/m2
03:08 23.1 °F 14.4 °F 30.39 in Calm   2.0 mph 69% 0.00 in 0 W/m2
03:14 22.8 °F 14.1 °F 30.39 in Calm     69% 0.00 in 0 W/m2
03:20 22.8 °F 14.5 °F 30.39 in Calm     70% 0.00 in 0 W/m2
03:26 23.0 °F 14.0 °F 30.39 in Calm     68% 0.00 in 0 W/m2
03:32 23.0 °F 14.7 °F 30.39 in Calm   2.0 mph 70% 0.00 in 0 W/m2
03:38 23.1 °F 14.8 °F 30.39 in Calm   2.0 mph 70% 0.00 in 0 W/m2
03:44 23.1 °F 14.8 °F 30.39 in Calm     70% 0.00 in 0 W/m2
03:50 23.0 °F 15.0 °F 30.39 in Calm     71% 0.00 in 0 W/m2
03:56 23.0 °F 15.3 °F 30.39 in Calm     72% 0.00 in 0 W/m2
04:02 22.9 °F 15.5 °F 30.39 in Calm     73% 0.00 in 0 W/m2
04:08 22.9 °F 15.5 °F 30.39 in Calm     73% 0.00 in 0 W/m2
04:14 23.2 °F 15.5 °F 30.39 in Calm     72% 0.00 in 0 W/m2
04:20 23.2 °F 15.8 °F 30.39 in Calm     73% 0.00 in 0 W/m2
04:26 23.0 °F 15.0 °F 30.39 in Calm   1.0 mph 71% 0.00 in 0 W/m2
04:32 23.3 °F 14.6 °F 30.39 in Calm   2.0 mph 69% 0.00 in 0 W/m2
04:38 23.3 °F 15.0 °F 30.39 in Calm   2.0 mph 70% 0.00 in 0 W/m2
04:44 23.1 °F 15.1 °F 30.39 in Calm     71% 0.00 in 0 W/m2
04:50 22.9 °F 15.5 °F 30.39 in Calm     73% 0.00 in 0 W/m2
04:56 22.7 °F 15.3 °F 30.39 in Calm     73% 0.00 in 0 W/m2
05:02 22.4 °F 15.4 °F 30.39 in Calm     74% 0.00 in 0 W/m2
05:08 22.2 °F 15.2 °F 30.39 in Calm     74% 0.00 in 0 W/m2
05:14 22.0 °F 15.3 °F 30.39 in Calm     75% 0.00 in 0 W/m2
05:20 21.9 °F 15.5 °F 30.39 in Calm     76% 0.00 in 0 W/m2
05:26 21.8 °F 15.4 °F 30.39 in Calm     76% 0.00 in 0 W/m2
05:32 21.8 °F 15.7 °F 30.39 in Calm     77% 0.00 in 0 W/m2
05:38 22.0 °F 15.9 °F 30.39 in Calm     77% 0.00 in 0 W/m2
05:44 22.3 °F 16.2 °F 30.39 in Calm     77% 0.00 in 0 W/m2
05:50 22.3 °F 16.5 °F 30.39 in Calm     78% 0.00 in 0 W/m2
05:56 22.4 °F 16.6 °F 30.39 in Calm     78% 0.00 in 0 W/m2
06:02 22.3 °F 16.2 °F 30.39 in Calm     77% 0.00 in 0 W/m2
06:08 22.1 °F 16.0 °F 30.39 in Calm     77% 0.00 in 0 W/m2
06:14 22.2 °F 16.1 °F 30.39 in Calm     77% 0.00 in 0 W/m2
06:20 22.0 °F 15.9 °F 30.39 in Calm     77% 0.00 in 0 W/m2
06:26 21.8 °F 15.7 °F 30.40 in Calm     77% 0.00 in 0 W/m2
06:32 21.6 °F 15.5 °F 30.40 in Calm     77% 0.00 in 0 W/m2
06:38 21.3 °F 15.5 °F 30.40 in Calm     78% 0.00 in 0 W/m2
06:44 21.2 °F 15.4 °F 30.40 in Calm     78% 0.00 in 0 W/m2
06:50 21.2 °F 15.4 °F 30.40 in Calm     78% 0.00 in 0 W/m2
06:56 21.3 °F 15.8 °F 30.40 in Calm     79% 0.00 in 0 W/m2
07:02 21.4 °F 15.9 °F 30.40 in Calm     79% 0.00 in 7 W/m2
07:08 21.8 °F 16.6 °F 30.40 in Calm     80% 0.00 in 14 W/m2
07:14 22.4 °F 17.2 °F 30.40 in Calm     80% 0.00 in 25 W/m2
07:20 23.2 °F 17.7 °F 30.40 in Calm     79% 0.00 in 35 W/m2
07:26 23.9 °F 18.0 °F 30.40 in Calm     78% 0.00 in 33 W/m2
07:32 24.4 °F 17.6 °F 30.41 in Calm   1.0 mph 75% 0.00 in 44 W/m2
07:38 25.0 °F 17.6 °F 30.41 in Calm   1.0 mph 73% 0.00 in 54 W/m2
07:44 25.6 °F 17.8 °F 30.41 in Calm     72% 0.00 in 42 W/m2
07:50 26.0 °F 18.5 °F 30.41 in Calm     73% 0.00 in 81 W/m2
07:56 26.5 °F 18.4 °F 30.41 in Calm     71% 0.00 in 77 W/m2
08:04 27.1 °F 18.3 °F 30.41 in Calm     69% 0.00 in 65 W/m2
08:10 27.4 °F 17.5 °F 30.40 in Calm     66% 0.00 in 69 W/m2
08:16 27.9 °F 18.0 °F 30.41 in Calm     66% 0.00 in 91 W/m2
08:22 28.3 °F 18.0 °F 30.41 in Calm     65% 0.00 in 72 W/m2
08:28 28.6 °F 17.6 °F 30.41 in Calm     63% 0.00 in 51 W/m2
08:34 28.7 °F 18.1 °F 30.41 in Calm     64% 0.00 in 54 W/m2
08:40 28.9 °F 17.5 °F 30.41 in Calm   1.0 mph 62% 0.00 in 81 W/m2
08:46 29.0 °F 17.6 °F 30.41 in Calm   1.0 mph 62% 0.00 in 83 W/m2
08:52 29.7 °F 17.9 °F 30.41 in Calm   1.0 mph 61% 0.00 in 251 W/m2
08:58 31.4 °F 18.3 °F 30.40 in Calm   2.0 mph 58% 0.00 in 369 W/m2
09:04 32.3 °F 17.9 °F 30.40 in ENE 1.0 mph 1.0 mph 55% 0.00 in 429 W/m2
09:10 33.4 °F 18.1 °F 30.40 in ESE 1.0 mph 2.0 mph 53% 0.00 in 424 W/m2
09:16 32.5 °F 16.8 °F 30.40 in SSE 2.0 mph 3.0 mph 52% 0.00 in 121 W/m2
09:22 32.2 °F 17.0 °F 30.40 in SE 1.0 mph 2.0 mph 53% 0.00 in 113 W/m2
09:28 33.2 °F 17.0 °F 30.40 in East 1.0 mph 2.0 mph 51% 0.00 in 469 W/m2
09:34 33.8 °F 17.1 °F 30.40 in SSE 2.0 mph 2.0 mph 50% 0.00 in 243 W/m2
09:40 33.9 °F 18.1 °F 30.40 in SSE 2.0 mph 3.0 mph 52% 0.00 in 292 W/m2
09:46 33.4 °F 17.2 °F 30.40 in SSE 2.0 mph 4.0 mph 51% 0.00 in 325 W/m2
09:52 33.9 °F 18.6 °F 30.40 in SSE 2.0 mph 2.0 mph 53% 0.00 in 229 W/m2
09:58 34.0 °F 17.3 °F 30.40 in SE 1.0 mph 3.0 mph 50% 0.00 in 285 W/m2
10:04 34.7 °F 17.5 °F 30.40 in SE 1.0 mph 1.0 mph 49% 0.00 in 345 W/m2
10:10 35.2 °F 17.4 °F 30.39 in SSE 1.0 mph 3.0 mph 48% 0.00 in 445 W/m2
10:16 35.9 °F 18.1 °F 30.39 in South 2.0 mph 3.0 mph 48% 0.00 in 438 W/m2
10:22 36.3 °F 18.9 °F 30.40 in South 2.0 mph 2.0 mph 49% 0.00 in 457 W/m2
10:28 36.8 °F 19.4 °F 30.40 in SSE 1.0 mph 3.0 mph 49% 0.00 in 455 W/m2
10:34 37.1 °F 17.7 °F 30.40 in SSE 1.0 mph 3.0 mph 45% 0.00 in 519 W/m2
10:40 36.5 °F 17.7 °F 30.40 in SSE 1.0 mph 1.0 mph 46% 0.00 in 345 W/m2
10:46 36.0 °F 17.2 °F 30.40 in SSE 1.0 mph 1.0 mph 46% 0.00 in 318 W/m2
10:52 37.0 °F 18.6 °F 30.40 in SSW 1.0 mph 2.0 mph 47% 0.00 in 457 W/m2
10:58 37.4 °F 19.0 °F 30.40 in SSW 1.0 mph 3.0 mph 47% 0.00 in 336 W/m2
11:04 38.6 °F 19.1 °F 30.40 in SSW 1.0 mph 3.0 mph 45% 0.00 in 457 W/m2
11:10 38.4 °F 19.4 °F 30.39 in Calm     46% 0.00 in 487 W/m2
11:16 38.4 °F 18.9 °F 30.39 in SE 1.0 mph 4.0 mph 45% 0.00 in 496 W/m2
11:22 37.9 °F 17.9 °F 30.39 in SE 1.0 mph 1.0 mph 44% 0.00 in 492 W/m2
11:28 38.9 °F 17.7 °F 30.39 in SW 1.0 mph 3.0 mph 42% 0.00 in 492 W/m2
11:34 39.2 °F 19.1 °F 30.39 in SW 1.0 mph 1.0 mph 44% 0.00 in 496 W/m2
11:40 39.0 °F 18.4 °F 30.39 in WSW 1.0 mph 3.0 mph 43% 0.00 in 494 W/m2
11:46 39.1 °F 17.9 °F 30.38 in SSE 2.0 mph 3.0 mph 42% 0.00 in 526 W/m2
11:52 39.9 °F 19.2 °F 30.37 in South 2.0 mph 2.0 mph 43% 0.00 in 585 W/m2
11:58 39.7 °F 17.9 °F 30.37 in SSE 2.0 mph 4.0 mph 41% 0.00 in 499 W/m2
12:04 40.3 °F 18.4 °F 30.37 in SSE 1.0 mph 5.0 mph 41% 0.00 in 497 W/m2
12:10 40.1 °F 18.8 °F 30.37 in ENE 1.0 mph 2.0 mph 42% 0.00 in 501 W/m2
12:16 40.5 °F 19.2 °F 30.37 in ENE 1.0 mph 2.0 mph 42% 0.00 in 427 W/m2
12:22 40.2 °F 18.3 °F 30.36 in East 2.0 mph 4.0 mph 41% 0.00 in 476 W/m2
12:28 40.7 °F 18.8 °F 30.37 in SE 2.0 mph 5.0 mph 41% 0.00 in 494 W/m2
12:34 41.2 °F 16.9 °F 30.36 in WSW 2.0 mph 3.0 mph 37% 0.00 in 494 W/m2
12:40 42.5 °F 19.8 °F 30.37 in WSW 1.0 mph 2.0 mph 40% 0.00 in 480 W/m2
12:46 41.5 °F 17.7 °F 30.37 in WSW 1.0 mph 3.0 mph 38% 0.00 in 457 W/m2
12:52 42.1 °F 15.7 °F 30.37 in WSW 1.0 mph 2.0 mph 34% 0.00 in 357 W/m2
12:58 41.3 °F 16.3 °F 30.37 in WSW 1.0 mph 2.0 mph 36% 0.00 in 413 W/m2
13:04 41.1 °F 18.0 °F 30.36 in SE 2.0 mph 4.0 mph 39% 0.00 in 441 W/m2
13:10 40.9 °F 17.8 °F 30.35 in ESE 2.0 mph 2.0 mph 39% 0.00 in 367 W/m2
13:16 40.9 °F 16.6 °F 30.36 in East 2.0 mph 3.0 mph 37% 0.00 in 366 W/m2
13:22 41.0 °F 16.7 °F 30.36 in SE 2.0 mph 3.0 mph 37% 0.00 in 304 W/m2
13:28 41.1 °F 16.8 °F 30.36 in SE 2.0 mph 3.0 mph 37% 0.00 in 334 W/m2
13:34 41.4 °F 18.3 °F 30.35 in NNE 1.0 mph 5.0 mph 39% 0.00 in 322 W/m2
13:40 40.9 °F 20.6 °F 30.35 in ENE 2.0 mph 2.0 mph 44% 0.00 in 352 W/m2
13:46 41.5 °F 21.7 °F 30.35 in NE 1.0 mph 2.0 mph 45% 0.00 in 397 W/m2
13:52 40.9 °F 20.1 °F 30.35 in NE 2.0 mph 6.0 mph 43% 0.00 in 290 W/m2
13:58 40.9 °F 21.2 °F 30.35 in North 3.0 mph 6.0 mph 45% 0.00 in 197 W/m2
14:04 41.0 °F 20.2 °F 30.35 in North 2.0 mph 3.0 mph 43% 0.00 in 171 W/m2
14:10 41.1 °F 21.3 °F 30.35 in NE 2.0 mph 4.0 mph 45% 0.00 in 167 W/m2
14:16 40.7 °F 21.0 °F 30.35 in NNE 2.0 mph 4.0 mph 45% 0.00 in 151 W/m2
14:22 40.4 °F 21.7 °F 30.35 in East 2.0 mph 3.0 mph 47% 0.00 in 97 W/m2
14:28 39.9 °F 22.3 °F 30.35 in NE 2.0 mph 5.0 mph 49% 0.00 in 90 W/m2
14:34 39.7 °F 22.1 °F 30.35 in NNE 2.0 mph 3.0 mph 49% 0.00 in 128 W/m2
14:40 39.7 °F 21.1 °F 30.35 in NE 2.0 mph 3.0 mph 47% 0.00 in 109 W/m2
14:46 39.6 °F 22.0 °F 30.35 in East 2.0 mph 3.0 mph 49% 0.00 in 107 W/m2
14:52 39.4 °F 21.8 °F 30.35 in NNE 2.0 mph 5.0 mph 49% 0.00 in 97 W/m2
14:58 39.5 °F 21.9 °F 30.35 in ENE 2.0 mph 5.0 mph 49% 0.00 in 76 W/m2
15:04 39.4 °F 22.3 °F 30.36 in ENE 2.0 mph 2.0 mph 50% 0.00 in 67 W/m2
15:10 39.4 °F 22.3 °F 30.36 in ENE 1.0 mph 2.0 mph 50% 0.00 in 67 W/m2
15:16 39.4 °F 21.8 °F 30.36 in NE 1.0 mph 2.0 mph 49% 0.00 in 72 W/m2
15:22 39.3 °F 22.2 °F 30.36 in NE 1.0 mph 1.0 mph 50% 0.00 in 70 W/m2
15:28 39.2 °F 22.1 °F 30.35 in NE 1.0 mph 2.0 mph 50% 0.00 in 69 W/m2
15:34 39.1 °F 22.0 °F 30.35 in NE 2.0 mph 2.0 mph 50% 0.00 in 72 W/m2
15:40 39.0 °F 21.9 °F 30.35 in NE 2.0 mph 2.0 mph 50% 0.00 in 74 W/m2
15:46 39.0 °F 21.9 °F 30.35 in NE 1.0 mph 3.0 mph 50% 0.00 in 56 W/m2
15:52 38.9 °F 22.3 °F 30.35 in NE 1.0 mph 2.0 mph 51% 0.00 in 46 W/m2
15:58 38.9 °F 22.3 °F 30.35 in NE 1.0 mph 2.0 mph 51% 0.00 in 35 W/m2
16:04 38.9 °F 22.3 °F 30.35 in NE 1.0 mph 2.0 mph 51% 0.00 in 33 W/m2
16:10 38.9 °F 22.3 °F 30.35 in NE 1.0 mph 2.0 mph 51% 0.00 in 25 W/m2
16:16 38.9 °F 22.3 °F 30.36 in NE 2.0 mph 2.0 mph 51% 0.00 in 18 W/m2
16:22 38.9 °F 22.3 °F 30.35 in NE 1.0 mph 2.0 mph 51% 0.00 in 14 W/m2
16:28 38.9 °F 22.3 °F 30.35 in NE 1.0 mph 2.0 mph 51% 0.00 in 9 W/m2
16:34 38.9 °F 22.8 °F 30.36 in Calm   1.0 mph 52% 0.00 in 5 W/m2
16:38 38.8 °F 22.2 °F 30.36 in Calm   1.0 mph 51% 0.00 in 0 W/m2
16:44 38.7 °F 22.1 °F 30.36 in Calm     51% 0.00 in 0 W/m2
16:50 38.6 °F 22.5 °F 30.36 in Calm     52% 0.00 in 0 W/m2
16:56 38.4 °F 22.7 °F 30.36 in Calm     53% 0.00 in 0 W/m2
17:02 38.3 °F 23.5 °F 30.36 in Calm     55% 0.00 in 0 W/m2
17:08 38.2 °F 24.3 °F 30.37 in Calm     57% 0.00 in 0 W/m2
17:14 38.0 °F 24.5 °F 30.37 in Calm     58% 0.00 in 0 W/m2
17:20 37.9 °F 24.8 °F 30.37 in Calm     59% 0.00 in 0 W/m2
17:26 37.7 °F 23.4 °F 30.37 in Calm     56% 0.00 in 0 W/m2
17:32 37.6 °F 23.3 °F 30.37 in Calm     56% 0.00 in 0 W/m2
17:38 37.5 °F 25.3 °F 30.37 in Calm     61% 0.00 in 0 W/m2
17:44 37.2 °F 24.6 °F 30.37 in Calm     60% 0.00 in 0 W/m2
17:50 37.2 °F 25.8 °F 30.37 in Calm     63% 0.00 in 0 W/m2
17:56 37.1 °F 24.1 °F 30.37 in Calm     59% 0.00 in 0 W/m2
18:02 37.1 °F 25.7 °F 30.37 in Calm     63% 0.00 in 0 W/m2
18:08 37.1 °F 24.9 °F 30.37 in Calm     61% 0.00 in 0 W/m2
18:14 37.2 °F 25.8 °F 30.37 in Calm   1.0 mph 63% 0.00 in 0 W/m2
18:20 37.1 °F 25.3 °F 30.37 in Calm     62% 0.00 in 0 W/m2
18:26 37.1 °F 23.7 °F 30.37 in Calm   1.0 mph 58% 0.00 in 0 W/m2
18:32 37.1 °F 25.3 °F 30.38 in Calm     62% 0.00 in 0 W/m2
18:38 37.1 °F 24.5 °F 30.38 in Calm     60% 0.00 in 0 W/m2
18:44 37.0 °F 24.0 °F 30.38 in Calm     59% 0.00 in 0 W/m2
18:50 37.0 °F 24.4 °F 30.37 in Calm     60% 0.00 in 0 W/m2
18:56 36.9 °F 24.3 °F 30.37 in Calm     60% 0.00 in 0 W/m2
19:02 36.8 °F 24.2 °F 30.37 in Calm     60% 0.00 in 0 W/m2
19:08 36.8 °F 23.4 °F 30.38 in Calm     58% 0.00 in 0 W/m2
19:14 36.9 °F 24.7 °F 30.38 in Calm     61% 0.00 in 0 W/m2
19:20 37.0 °F 25.2 °F 30.37 in Calm     62% 0.00 in 0 W/m2
19:26 36.9 °F 24.3 °F 30.37 in Calm     60% 0.00 in 0 W/m2
19:32 36.9 °F 25.1 °F 30.37 in Calm     62% 0.00 in 0 W/m2
19:38 37.0 °F 25.6 °F 30.37 in Calm     63% 0.00 in 0 W/m2
19:44 36.9 °F 23.9 °F 30.37 in Calm     59% 0.00 in 0 W/m2
19:50 37.0 °F 22.7 °F 30.37 in Calm     56% 0.00 in 0 W/m2
19:56 37.3 °F 23.4 °F 30.37 in Calm   1.0 mph 57% 0.00 in 0 W/m2
20:02 37.5 °F 24.1 °F 30.37 in Calm     58% 0.00 in 0 W/m2
20:08 37.4 °F 24.4 °F 30.37 in Calm     59% 0.00 in 0 W/m2
20:14 37.5 °F 22.8 °F 30.37 in Calm     55% 0.00 in 0 W/m2
20:20 37.5 °F 23.6 °F 30.37 in Calm     57% 0.00 in 0 W/m2
20:26 37.5 °F 23.2 °F 30.37 in Calm     56% 0.00 in 0 W/m2
20:32 37.6 °F 21.5 °F 30.37 in Calm     52% 0.00 in 0 W/m2
20:38 37.6 °F 22.0 °F 30.37 in Calm   2.0 mph 53% 0.00 in 0 W/m2
20:44 37.6 °F 21.1 °F 30.36 in Calm   1.0 mph 51% 0.00 in 0 W/m2
20:50 37.7 °F 19.8 °F 30.36 in Calm     48% 0.00 in 0 W/m2
20:56 37.7 °F 20.2 °F 30.37 in Calm     49% 0.00 in 0 W/m2
21:02 37.7 °F 20.2 °F 30.36 in Calm     49% 0.00 in 0 W/m2
21:08 37.7 °F 19.3 °F 30.36 in Calm     47% 0.00 in 0 W/m2
21:16 37.5 °F 21.0 °F 30.36 in Calm     51% 0.00 in 0 W/m2
21:22 37.3 °F 19.9 °F 30.36 in Calm     49% 0.00 in 0 W/m2
21:28 37.3 °F 19.9 °F 30.36 in Calm   1.0 mph 49% 0.00 in 0 W/m2
21:34 37.3 °F 18.9 °F 30.35 in Calm     47% 0.00 in 0 W/m2
21:40 37.2 °F 20.2 °F 30.35 in Calm     50% 0.00 in 0 W/m2
21:46 37.1 °F 19.7 °F 30.35 in Calm     49% 0.00 in 0 W/m2
21:52 36.9 °F 23.1 °F 30.35 in Calm     57% 0.00 in 0 W/m2
21:58 36.8 °F 19.4 °F 30.35 in Calm     49% 0.00 in 0 W/m2
22:04 36.8 °F 20.3 °F 30.35 in Calm     51% 0.00 in 0 W/m2
22:10 36.8 °F 21.3 °F 30.35 in Calm     53% 0.00 in 0 W/m2
22:16 36.7 °F 19.8 °F 30.35 in Calm     50% 0.00 in 0 W/m2
22:22 36.8 °F 20.3 °F 30.35 in Calm     51% 0.00 in 0 W/m2
22:28 36.9 °F 20.9 °F 30.35 in Calm     52% 0.00 in 0 W/m2
22:34 37.0 °F 21.9 °F 30.35 in Calm     54% 0.00 in 0 W/m2
22:40 36.9 °F 22.7 °F 30.35 in Calm     56% 0.00 in 0 W/m2
22:46 36.8 °F 22.1 °F 30.35 in Calm     55% 0.00 in 0 W/m2
22:52 36.6 °F 24.4 °F 30.34 in Calm     61% 0.00 in 0 W/m2
22:56 36.5 °F 24.3 °F 30.34 in Calm     61% 0.00 in 0 W/m2
23:02 36.2 °F 23.2 °F 30.34 in Calm     59% 0.00 in 0 W/m2
23:08 36.1 °F 23.1 °F 30.34 in Calm     59% 0.00 in 0 W/m2
23:14 36.0 °F 23.4 °F 30.34 in Calm     60% 0.00 in 0 W/m2
23:20 36.0 °F 22.2 °F 30.34 in Calm     57% 0.00 in 0 W/m2
23:26 36.1 °F 23.5 °F 30.34 in Calm     60% 0.00 in 0 W/m2
23:32 36.2 °F 24.0 °F 30.34 in Calm     61% 0.00 in 0 W/m2
23:38 36.1 °F 24.7 °F 30.34 in Calm     63% 0.00 in 0 W/m2
23:44 36.1 °F 24.7 °F 30.34 in Calm     63% 0.00 in 0 W/m2
23:50 36.0 °F 23.0 °F 30.34 in Calm     59% 0.00 in 0 W/m2
23:56 36.2 °F 24.0 °F 30.34 in Calm     61% 0.00 in 0 W/m2
Country Meadow, Clay, NY, USA
Compliments of Weather Underground - 2 mb